sensor_id;sensor_type;location;lat;lon;timestamp;pressure;altitude;pressure_sealevel;temperature;humidity
79625;BME280;69101;45.534;10.218;2023-04-23T00:01:45;99604.31;;;22.15;41.08
79625;BME280;69101;45.534;10.218;2023-04-23T00:04:12;99597.59;;;22.13;41.01
79625;BME280;69101;45.534;10.218;2023-04-23T00:06:41;99598.41;;;22.13;41.02
79625;BME280;69101;45.534;10.218;2023-04-23T00:09:07;99600.25;;;22.13;41.01
79625;BME280;69101;45.534;10.218;2023-04-23T00:11:33;99600.25;;;22.13;41.14
79625;BME280;69101;45.534;10.218;2023-04-23T00:13:58;99593.13;;;22.13;41.02
79625;BME280;69101;45.534;10.218;2023-04-23T00:16:24;99589.47;;;22.08;40.87
79625;BME280;69101;45.534;10.218;2023-04-23T00:18:50;99585.38;;;22.12;40.47
79625;BME280;69101;45.534;10.218;2023-04-23T00:21:15;99591.72;;;22.11;40.83
79625;BME280;69101;45.534;10.218;2023-04-23T00:23:41;99591.47;;;22.12;40.89
79625;BME280;69101;45.534;10.218;2023-04-23T00:26:06;99591.06;;;22.15;40.71
79625;BME280;69101;45.534;10.218;2023-04-23T00:28:31;99580.66;;;22.14;41.07
79625;BME280;69101;45.534;10.218;2023-04-23T00:30:57;99575.16;;;22.15;40.46
79625;BME280;69101;45.534;10.218;2023-04-23T00:33:22;99578.25;;;22.12;40.55
79625;BME280;69101;45.534;10.218;2023-04-23T00:35:48;99576.19;;;22.14;40.32
79625;BME280;69101;45.534;10.218;2023-04-23T00:38:13;99573.16;;;22.11;40.56
79625;BME280;69101;45.534;10.218;2023-04-23T00:40:39;99570.88;;;22.14;40.59
79625;BME280;69101;45.534;10.218;2023-04-23T00:43:05;99578.00;;;22.14;40.67
79625;BME280;69101;45.534;10.218;2023-04-23T00:45:31;99575.81;;;22.11;41.14
79625;BME280;69101;45.534;10.218;2023-04-23T00:47:57;99575.81;;;22.11;40.76
79625;BME280;69101;45.534;10.218;2023-04-23T00:50:22;99575.00;;;22.10;40.60
79625;BME280;69101;45.534;10.218;2023-04-23T00:52:48;99575.19;;;22.09;40.81
79625;BME280;69101;45.534;10.218;2023-04-23T00:55:13;99572.53;;;22.09;40.68
79625;BME280;69101;45.534;10.218;2023-04-23T00:57:39;99570.72;;;22.09;40.50
79625;BME280;69101;45.534;10.218;2023-04-23T01:00:05;99576.25;;;22.08;40.67
79625;BME280;69101;45.534;10.218;2023-04-23T01:02:32;99569.31;;;22.07;41.02
79625;BME280;69101;45.534;10.218;2023-04-23T01:04:59;99568.28;;;22.08;40.55
79625;BME280;69101;45.534;10.218;2023-04-23T01:07:26;99568.72;;;22.05;40.95
79625;BME280;69101;45.534;10.218;2023-04-23T01:09:52;99574.00;;;22.05;40.77
79625;BME280;69101;45.534;10.218;2023-04-23T01:12:18;99574.59;;;22.07;40.82
79625;BME280;69101;45.534;10.218;2023-04-23T01:14:43;99565.47;;;22.03;40.84
79625;BME280;69101;45.534;10.218;2023-04-23T01:17:10;99559.75;;;22.06;40.82
79625;BME280;69101;45.534;10.218;2023-04-23T01:19:40;99561.59;;;22.05;40.86
79625;BME280;69101;45.534;10.218;2023-04-23T01:22:14;99562.81;;;22.03;41.07
79625;BME280;69101;45.534;10.218;2023-04-23T01:24:40;99564.44;;;22.04;40.83
79625;BME280;69101;45.534;10.218;2023-04-23T01:27:09;99563.00;;;22.01;40.88
79625;BME280;69101;45.534;10.218;2023-04-23T01:29:35;99568.13;;;22.03;40.74
79625;BME280;69101;45.534;10.218;2023-04-23T01:32:02;99566.47;;;22.02;41.42
79625;BME280;69101;45.534;10.218;2023-04-23T01:34:29;99565.66;;;22.01;40.62
79625;BME280;69101;45.534;10.218;2023-04-23T01:36:56;99564.25;;;21.99;40.69
79625;BME280;69101;45.534;10.218;2023-04-23T01:39:22;99569.13;;;22.02;40.79
79625;BME280;69101;45.534;10.218;2023-04-23T01:41:48;99563.25;;;22.00;40.99
79625;BME280;69101;45.534;10.218;2023-04-23T01:44:13;99560.78;;;21.98;41.16
79625;BME280;69101;45.534;10.218;2023-04-23T01:46:39;99561.81;;;21.97;41.15
79625;BME280;69101;45.534;10.218;2023-04-23T01:49:04;99558.38;;;21.97;41.10
79625;BME280;69101;45.534;10.218;2023-04-23T01:51:30;99551.44;;;21.96;40.96
79625;BME280;69101;45.534;10.218;2023-04-23T01:53:55;99546.13;;;21.96;40.67
79625;BME280;69101;45.534;10.218;2023-04-23T01:56:25;99551.88;;;21.93;41.17
79625;BME280;69101;45.534;10.218;2023-04-23T01:58:51;99549.44;;;21.91;40.98
79625;BME280;69101;45.534;10.218;2023-04-23T02:01:16;99560.41;;;21.95;40.67
79625;BME280;69101;45.534;10.218;2023-04-23T02:03:42;99552.25;;;21.96;40.77
79625;BME280;69101;45.534;10.218;2023-04-23T02:06:08;99556.53;;;21.97;40.69
79625;BME280;69101;45.534;10.218;2023-04-23T02:08:34;99555.13;;;21.95;40.88
79625;BME280;69101;45.534;10.218;2023-04-23T02:11:00;99552.28;;;21.90;40.83
79625;BME280;69101;45.534;10.218;2023-04-23T02:13:25;99553.91;;;21.91;40.72
79625;BME280;69101;45.534;10.218;2023-04-23T02:15:51;99552.06;;;21.91;41.14
79625;BME280;69101;45.534;10.218;2023-04-23T02:18:16;99551.06;;;21.92;40.62
79625;BME280;69101;45.534;10.218;2023-04-23T02:20:41;99546.78;;;21.91;40.67
79625;BME280;69101;45.534;10.218;2023-04-23T02:23:07;99549.44;;;21.91;40.97
79625;BME280;69101;45.534;10.218;2023-04-23T02:25:33;99547.00;;;21.90;40.84
79625;BME280;69101;45.534;10.218;2023-04-23T02:27:58;99539.88;;;21.90;40.80
79625;BME280;69101;45.534;10.218;2023-04-23T02:30:25;99540.06;;;21.89;41.01
79625;BME280;69101;45.534;10.218;2023-04-23T02:32:51;99534.19;;;21.87;40.89
79625;BME280;69101;45.534;10.218;2023-04-23T02:35:16;99545.38;;;21.89;40.92
79625;BME280;69101;45.534;10.218;2023-04-23T02:37:42;99541.13;;;21.88;40.84
79625;BME280;69101;45.534;10.218;2023-04-23T02:40:08;99544.97;;;21.85;40.86
79625;BME280;69101;45.534;10.218;2023-04-23T02:42:33;99549.06;;;21.88;40.98
79625;BME280;69101;45.534;10.218;2023-04-23T02:44:59;99545.78;;;21.86;41.27
79625;BME280;69101;45.534;10.218;2023-04-23T02:47:25;99537.66;;;21.87;41.08
79625;BME280;69101;45.534;10.218;2023-04-23T02:49:50;99543.13;;;21.86;40.88
79625;BME280;69101;45.534;10.218;2023-04-23T02:52:16;99539.66;;;21.85;41.03
79625;BME280;69101;45.534;10.218;2023-04-23T02:54:41;99539.28;;;21.81;41.21
79625;BME280;69101;45.534;10.218;2023-04-23T02:57:09;99540.91;;;21.82;40.91
79625;BME280;69101;45.534;10.218;2023-04-23T02:59:36;99539.88;;;21.83;40.95
79625;BME280;69101;45.534;10.218;2023-04-23T03:02:02;99547.81;;;21.83;41.48
79625;BME280;69101;45.534;10.218;2023-04-23T03:04:27;99545.16;;;21.83;41.07
79625;BME280;69101;45.534;10.218;2023-04-23T03:06:52;99554.56;;;21.79;41.06
79625;BME280;69101;45.534;10.218;2023-04-23T03:09:18;99547.22;;;21.81;41.00
79625;BME280;69101;45.534;10.218;2023-04-23T03:11:43;99540.91;;;21.82;41.08
79625;BME280;69101;45.534;10.218;2023-04-23T03:14:09;99541.91;;;21.81;41.00
79625;BME280;69101;45.534;10.218;2023-04-23T03:16:34;99548.69;;;21.77;41.11
79625;BME280;69101;45.534;10.218;2023-04-23T03:18:59;99545.56;;;21.80;41.36
79625;BME280;69101;45.534;10.218;2023-04-23T03:21:25;99543.16;;;21.79;40.98
79625;BME280;69101;45.534;10.218;2023-04-23T03:23:51;99535.63;;;21.76;41.10
79625;BME280;69101;45.534;10.218;2023-04-23T03:26:16;99533.22;;;21.74;41.36
79625;BME280;69101;45.534;10.218;2023-04-23T03:28:42;99534.81;;;21.75;41.51
79625;BME280;69101;45.534;10.218;2023-04-23T03:31:07;99532.97;;;21.76;40.83
79625;BME280;69101;45.534;10.218;2023-04-23T03:33:32;99523.44;;;21.75;41.02
79625;BME280;69101;45.534;10.218;2023-04-23T03:35:58;99526.88;;;21.75;41.00
79625;BME280;69101;45.534;10.218;2023-04-23T03:38:23;99520.56;;;21.76;40.91
79625;BME280;69101;45.534;10.218;2023-04-23T03:40:49;99534.03;;;21.75;41.00
79625;BME280;69101;45.534;10.218;2023-04-23T03:43:14;99536.88;;;21.73;41.08
79625;BME280;69101;45.534;10.218;2023-04-23T03:45:39;99530.97;;;21.71;41.14
79625;BME280;69101;45.534;10.218;2023-04-23T03:48:05;99535.22;;;21.72;41.21
79625;BME280;69101;45.534;10.218;2023-04-23T03:50:30;99540.75;;;21.71;41.09
79625;BME280;69101;45.534;10.218;2023-04-23T03:52:58;99533.63;;;21.71;41.14
79625;BME280;69101;45.534;10.218;2023-04-23T03:55:23;99538.91;;;21.71;41.09
79625;BME280;69101;45.534;10.218;2023-04-23T03:57:49;99528.53;;;21.70;41.16
79625;BME280;69101;45.534;10.218;2023-04-23T04:00:15;99524.63;;;21.72;40.94
79625;BME280;69101;45.534;10.218;2023-04-23T04:02:40;99523.63;;;21.73;41.01
79625;BME280;69101;45.534;10.218;2023-04-23T04:05:06;99534.44;;;21.72;41.28
79625;BME280;69101;45.534;10.218;2023-04-23T04:07:31;99530.16;;;21.71;41.12
79625;BME280;69101;45.534;10.218;2023-04-23T04:09:57;99525.50;;;21.66;41.47
79625;BME280;69101;45.534;10.218;2023-04-23T04:12:23;99524.69;;;21.66;41.45
79625;BME280;69101;45.534;10.218;2023-04-23T04:14:48;99531.22;;;21.63;41.72
79625;BME280;69101;45.534;10.218;2023-04-23T04:17:14;99535.69;;;21.69;41.55
79625;BME280;69101;45.534;10.218;2023-04-23T04:19:41;99524.03;;;21.70;41.14
79625;BME280;69101;45.534;10.218;2023-04-23T04:22:07;99524.88;;;21.71;41.35
79625;BME280;69101;45.534;10.218;2023-04-23T04:24:33;99528.53;;;21.70;41.24
79625;BME280;69101;45.534;10.218;2023-04-23T04:27:02;99526.69;;;21.70;41.38
79625;BME280;69101;45.534;10.218;2023-04-23T04:29:29;99521.63;;;21.69;41.65
79625;BME280;69101;45.534;10.218;2023-04-23T04:31:55;99532.00;;;21.70;41.44
79625;BME280;69101;45.534;10.218;2023-04-23T04:34:21;99526.50;;;21.72;41.60
79625;BME280;69101;45.534;10.218;2023-04-23T04:36:47;99533.03;;;21.69;41.65
79625;BME280;69101;45.534;10.218;2023-04-23T04:39:13;99534.84;;;21.69;41.27
79625;BME280;69101;45.534;10.218;2023-04-23T04:41:38;99533.81;;;21.70;41.82
79625;BME280;69101;45.534;10.218;2023-04-23T04:44:05;99528.34;;;21.71;41.53
79625;BME280;69101;45.534;10.218;2023-04-23T04:46:31;99534.63;;;21.70;41.71
79625;BME280;69101;45.534;10.218;2023-04-23T04:48:58;99532.00;;;21.70;41.53
79625;BME280;69101;45.534;10.218;2023-04-23T04:51:23;99535.44;;;21.71;41.70
79625;BME280;69101;45.534;10.218;2023-04-23T04:53:48;99527.50;;;21.71;41.73
79625;BME280;69101;45.534;10.218;2023-04-23T04:56:14;99519.56;;;21.71;41.76
79625;BME280;69101;45.534;10.218;2023-04-23T04:58:39;99522.22;;;21.71;41.81
79625;BME280;69101;45.534;10.218;2023-04-23T05:01:04;99525.88;;;21.70;41.48
79625;BME280;69101;45.534;10.218;2023-04-23T05:03:30;99536.28;;;21.71;41.24
79625;BME280;69101;45.534;10.218;2023-04-23T05:05:56;99534.63;;;21.70;41.34
79625;BME280;69101;45.534;10.218;2023-04-23T05:08:23;99535.44;;;21.71;41.56
79625;BME280;69101;45.534;10.218;2023-04-23T05:10:49;99540.53;;;21.72;41.47
79625;BME280;69101;45.534;10.218;2023-04-23T05:13:15;99538.91;;;21.71;41.49
79625;BME280;69101;45.534;10.218;2023-04-23T05:15:41;99537.69;;;21.74;41.71
79625;BME280;69101;45.534;10.218;2023-04-23T05:18:08;99538.69;;;21.73;41.22
79625;BME280;69101;45.534;10.218;2023-04-23T05:20:34;99534.03;;;21.75;41.54
79625;BME280;69101;45.534;10.218;2023-04-23T05:22:59;99535.22;;;21.72;41.54
79625;BME280;69101;45.534;10.218;2023-04-23T05:25:26;99528.72;;;21.75;41.41
79625;BME280;69101;45.534;10.218;2023-04-23T05:27:51;99540.09;;;21.75;41.40
79625;BME280;69101;45.534;10.218;2023-04-23T05:30:17;99546.22;;;21.76;41.67
79625;BME280;69101;45.534;10.218;2023-04-23T05:32:42;99545.63;;;21.74;41.55
79625;BME280;69101;45.534;10.218;2023-04-23T05:35:08;99555.19;;;21.75;41.47
79625;BME280;69101;45.534;10.218;2023-04-23T05:37:34;99557.84;;;21.75;41.60
79625;BME280;69101;45.534;10.218;2023-04-23T05:40:00;99558.03;;;21.73;41.40
79625;BME280;69101;45.534;10.218;2023-04-23T05:42:27;99551.09;;;21.72;41.47
79625;BME280;69101;45.534;10.218;2023-04-23T05:44:52;99552.75;;;21.73;42.13
79625;BME280;69101;45.534;10.218;2023-04-23T05:47:17;99545.81;;;21.72;41.84
79625;BME280;69101;45.534;10.218;2023-04-23T05:49:43;99562.09;;;21.76;41.75
79625;BME280;69101;45.534;10.218;2023-04-23T05:52:08;99560.69;;;21.73;41.46
79625;BME280;69101;45.534;10.218;2023-04-23T05:54:34;99569.44;;;21.74;41.47
79625;BME280;69101;45.534;10.218;2023-04-23T05:56:59;99565.97;;;21.73;41.60
79625;BME280;69101;45.534;10.218;2023-04-23T05:59:25;99570.25;;;21.74;41.55
79625;BME280;69101;45.534;10.218;2023-04-23T06:01:51;99569.44;;;21.74;41.39
79625;BME280;69101;45.534;10.218;2023-04-23T06:04:16;99560.50;;;21.75;41.46
79625;BME280;69101;45.534;10.218;2023-04-23T06:06:42;99564.75;;;21.76;41.74
79625;BME280;69101;45.534;10.218;2023-04-23T06:09:07;99559.44;;;21.76;41.80
79625;BME280;69101;45.534;10.218;2023-04-23T06:11:33;99561.91;;;21.77;41.56
79625;BME280;69101;45.534;10.218;2023-04-23T06:14:00;99566.16;;;21.78;41.34
79625;BME280;69101;45.534;10.218;2023-04-23T06:16:26;99573.28;;;21.78;41.60
79625;BME280;69101;45.534;10.218;2023-04-23T06:18:51;99567.81;;;21.79;41.62
79625;BME280;69101;45.534;10.218;2023-04-23T06:21:16;99565.75;;;21.81;41.38
79625;BME280;69101;45.534;10.218;2023-04-23T06:23:42;99570.22;;;21.81;41.71
79625;BME280;69101;45.534;10.218;2023-04-23T06:26:07;99570.22;;;21.81;41.83
79625;BME280;69101;45.534;10.218;2023-04-23T06:28:32;99572.69;;;21.82;41.69
79625;BME280;69101;45.534;10.218;2023-04-23T06:30:58;99571.84;;;21.82;41.40
79625;BME280;69101;45.534;10.218;2023-04-23T06:33:23;99565.75;;;21.81;41.94
79625;BME280;69101;45.534;10.218;2023-04-23T06:35:48;99566.97;;;21.86;41.63
79625;BME280;69101;45.534;10.218;2023-04-23T06:38:14;99569.63;;;21.86;41.62
79625;BME280;69101;45.534;10.218;2023-04-23T06:40:39;99569.63;;;21.86;41.66
79625;BME280;69101;45.534;10.218;2023-04-23T06:43:05;99570.25;;;21.88;41.61
79625;BME280;69101;45.534;10.218;2023-04-23T06:45:32;99568.19;;;21.90;41.72
79625;BME280;69101;45.534;10.218;2023-04-23T06:47:58;99572.25;;;21.92;41.21
79625;BME280;69101;45.534;10.218;2023-04-23T06:50:24;99581.59;;;21.95;41.24
79625;BME280;69101;45.534;10.218;2023-04-23T06:52:49;99579.97;;;21.94;41.89
79625;BME280;69101;45.534;10.218;2023-04-23T06:55:15;99580.56;;;21.96;41.71
79625;BME280;69101;45.534;10.218;2023-04-23T06:57:40;99569.78;;;21.97;41.57
79625;BME280;69101;45.534;10.218;2023-04-23T07:00:06;99570.19;;;22.01;41.60
79625;BME280;69101;45.534;10.218;2023-04-23T07:02:35;99572.81;;;22.01;41.75
79625;BME280;69101;45.534;10.218;2023-04-23T07:05:00;99568.53;;;22.00;41.62
79625;BME280;69101;45.534;10.218;2023-04-23T07:07:26;99579.31;;;22.05;41.70
79625;BME280;69101;45.534;10.218;2023-04-23T07:09:52;99571.34;;;22.05;41.60
79625;BME280;69101;45.534;10.218;2023-04-23T07:12:17;99568.72;;;22.05;41.51
79625;BME280;69101;45.534;10.218;2023-04-23T07:14:42;99569.31;;;22.07;41.59
79625;BME280;69101;45.534;10.218;2023-04-23T07:17:08;99565.66;;;22.08;41.83
79625;BME280;69101;45.534;10.218;2023-04-23T07:19:35;99569.69;;;22.10;41.28
79625;BME280;69101;45.534;10.218;2023-04-23T07:22:00;99566.00;;;22.11;41.42
79625;BME280;69101;45.534;10.218;2023-04-23T07:24:26;99563.16;;;22.13;41.45
79625;BME280;69101;45.534;10.218;2023-04-23T07:26:51;99567.22;;;22.15;41.65
79625;BME280;69101;45.534;10.218;2023-04-23T07:29:16;99575.16;;;22.15;41.93
79625;BME280;69101;45.534;10.218;2023-04-23T07:31:42;99572.53;;;22.15;41.27
79625;BME280;69101;45.534;10.218;2023-04-23T07:34:07;99568.84;;;22.16;41.44
79625;BME280;69101;45.534;10.218;2023-04-23T07:36:34;99574.94;;;22.17;41.53
79625;BME280;69101;45.534;10.218;2023-04-23T07:39:00;99563.13;;;22.19;41.37
79625;BME280;69101;45.534;10.218;2023-04-23T07:41:25;99562.09;;;22.20;41.58
79625;BME280;69101;45.534;10.218;2023-04-23T07:43:51;99561.28;;;22.20;41.32
79625;BME280;69101;45.534;10.218;2023-04-23T07:46:16;99561.88;;;22.22;41.47
79625;BME280;69101;45.534;10.218;2023-04-23T07:48:41;99563.50;;;22.23;41.54
79625;BME280;69101;45.534;10.218;2023-04-23T07:51:07;99557.38;;;22.22;41.53
79625;BME280;69101;45.534;10.218;2023-04-23T07:53:33;99555.34;;;22.24;41.49
79625;BME280;69101;45.534;10.218;2023-04-23T07:55:59;99554.31;;;22.25;41.69
79625;BME280;69101;45.534;10.218;2023-04-23T07:58:25;99551.66;;;22.25;41.35
79625;BME280;69101;45.534;10.218;2023-04-23T08:00:50;99553.28;;;22.26;41.46
79625;BME280;69101;45.534;10.218;2023-04-23T08:03:15;99552.25;;;22.27;41.47
79625;BME280;69101;45.534;10.218;2023-04-23T08:05:41;99551.25;;;22.28;41.21
79625;BME280;69101;45.534;10.218;2023-04-23T08:08:07;99548.59;;;22.28;41.29
79625;BME280;69101;45.534;10.218;2023-04-23T08:10:35;99553.66;;;22.30;41.75
79625;BME280;69101;45.534;10.218;2023-04-23T08:13:01;99554.50;;;22.30;41.35
79625;BME280;69101;45.534;10.218;2023-04-23T08:15:26;99554.25;;;22.32;41.16
79625;BME280;69101;45.534;10.218;2023-04-23T08:17:51;99549.19;;;22.30;41.35
79625;BME280;69101;45.534;10.218;2023-04-23T08:20:17;99558.78;;;22.31;41.41
79625;BME280;69101;45.534;10.218;2023-04-23T08:22:43;99556.91;;;22.32;41.34
79625;BME280;69101;45.534;10.218;2023-04-23T08:25:08;99556.91;;;22.32;40.92
79625;BME280;69101;45.534;10.218;2023-04-23T08:27:34;99558.13;;;22.36;41.04
79625;BME280;69101;45.534;10.218;2023-04-23T08:29:59;99555.47;;;22.36;40.89
79625;BME280;69101;45.534;10.218;2023-04-23T08:32:25;99556.28;;;22.36;41.28
79625;BME280;69101;45.534;10.218;2023-04-23T08:34:50;99551.00;;;22.36;41.36
79625;BME280;69101;45.534;10.218;2023-04-23T08:37:16;99556.06;;;22.38;41.07
79625;BME280;69101;45.534;10.218;2023-04-23T08:39:41;99560.53;;;22.37;40.47
79625;BME280;69101;45.534;10.218;2023-04-23T08:42:10;99555.03;;;22.39;40.79
79625;BME280;69101;45.534;10.218;2023-04-23T08:44:40;99556.06;;;22.38;41.54
79625;BME280;69101;45.534;10.218;2023-04-23T08:47:09;99554.00;;;22.40;41.57
79625;BME280;69101;45.534;10.218;2023-04-23T08:49:36;99555.84;;;22.39;41.68
79625;BME280;69101;45.534;10.218;2023-04-23T08:52:16;99550.34;;;22.41;40.64
79625;BME280;69101;45.534;10.218;2023-04-23T08:54:48;99550.34;;;22.41;41.53
79625;BME280;69101;45.534;10.218;2023-04-23T08:57:15;99550.94;;;22.43;41.19
79625;BME280;69101;45.534;10.218;2023-04-23T08:59:41;99553.56;;;22.43;40.98
79625;BME280;69101;45.534;10.218;2023-04-23T09:02:08;99556.22;;;22.43;41.11
79625;BME280;69101;45.534;10.218;2023-04-23T09:04:35;99553.56;;;22.43;41.19
79625;BME280;69101;45.534;10.218;2023-04-23T09:07:01;99549.91;;;22.44;40.60
79625;BME280;69101;45.534;10.218;2023-04-23T09:09:28;99549.91;;;22.44;40.96
79625;BME280;69101;45.534;10.218;2023-04-23T09:11:54;99550.69;;;22.44;41.16
79625;BME280;69101;45.534;10.218;2023-04-23T09:14:24;99548.88;;;22.45;41.04
79625;BME280;69101;45.534;10.218;2023-04-23T09:16:50;99546.22;;;22.45;41.44
79625;BME280;69101;45.534;10.218;2023-04-23T09:19:17;99547.03;;;22.45;40.89
79625;BME280;69101;45.534;10.218;2023-04-23T09:21:43;99544.16;;;22.47;40.68
79625;BME280;69101;45.534;10.218;2023-04-23T09:24:10;99539.47;;;22.49;40.22
79625;BME280;69101;45.534;10.218;2023-04-23T09:26:43;99530.72;;;22.49;41.19
79625;BME280;69101;45.534;10.218;2023-04-23T09:29:19;99536.81;;;22.49;41.17
79625;BME280;69101;45.534;10.218;2023-04-23T09:31:46;99535.19;;;22.48;40.92
79625;BME280;69101;45.534;10.218;2023-04-23T09:34:21;99538.44;;;22.50;40.58
79625;BME280;69101;45.534;10.218;2023-04-23T09:36:48;99530.47;;;22.50;41.01
79625;BME280;69101;45.534;10.218;2023-04-23T09:39:20;99538.44;;;22.50;41.09
79625;BME280;69101;45.534;10.218;2023-04-23T09:41:46;99530.28;;;22.52;41.21
79625;BME280;69101;45.534;10.218;2023-04-23T09:44:17;99522.53;;;22.50;42.24
79625;BME280;69101;45.534;10.218;2023-04-23T09:46:42;99529.47;;;22.51;41.91
79625;BME280;69101;45.534;10.218;2023-04-23T09:49:09;99524.16;;;22.51;41.47
79625;BME280;69101;45.534;10.218;2023-04-23T09:51:39;99523.13;;;22.52;41.52
79625;BME280;69101;45.534;10.218;2023-04-23T09:54:12;99523.13;;;22.52;42.16
79625;BME280;69101;45.534;10.218;2023-04-23T09:56:39;99522.09;;;22.53;41.33
79625;BME280;69101;45.534;10.218;2023-04-23T09:59:26;99511.50;;;22.53;41.54
79625;BME280;69101;45.534;10.218;2023-04-23T10:01:52;99515.97;;;22.53;41.66
79625;BME280;69101;45.534;10.218;2023-04-23T10:04:22;99512.31;;;22.54;41.33
79625;BME280;69101;45.534;10.218;2023-04-23T10:06:52;99514.16;;;22.53;41.71
79625;BME280;69101;45.534;10.218;2023-04-23T10:09:18;99520.25;;;22.54;41.54
79625;BME280;69101;45.534;10.218;2023-04-23T10:11:48;99522.69;;;22.55;41.78
79625;BME280;69101;45.534;10.218;2023-04-23T10:14:15;99514.72;;;22.55;41.16
79625;BME280;69101;45.534;10.218;2023-04-23T10:16:43;99514.53;;;22.57;41.32
79625;BME280;69101;45.534;10.218;2023-04-23T10:19:13;99522.50;;;22.57;41.15
79625;BME280;69101;45.534;10.218;2023-04-23T10:21:40;99523.06;;;22.59;40.29
79625;BME280;69101;45.534;10.218;2023-04-23T10:24:08;99516.97;;;22.58;40.98
79625;BME280;69101;45.534;10.218;2023-04-23T10:26:37;99518.78;;;22.58;41.19
79625;BME280;69101;45.534;10.218;2023-04-23T10:29:04;99511.66;;;22.58;41.09
79625;BME280;69101;45.534;10.218;2023-04-23T10:31:33;99504.94;;;22.62;40.16
79625;BME280;69101;45.534;10.218;2023-04-23T10:34:01;99503.28;;;22.61;41.42
79625;BME280;69101;45.534;10.218;2023-04-23T10:36:32;99504.28;;;22.60;41.48
79625;BME280;69101;45.534;10.218;2023-04-23T10:38:57;99499.81;;;22.61;41.61
79625;BME280;69101;45.534;10.218;2023-04-23T10:41:34;99497.78;;;22.63;41.35
79625;BME280;69101;45.534;10.218;2023-04-23T10:44:02;99493.47;;;22.62;41.22
79625;BME280;69101;45.534;10.218;2023-04-23T10:46:28;99493.47;;;22.62;41.19
79625;BME280;69101;45.534;10.218;2023-04-23T10:49:10;99488.19;;;22.62;40.77
79625;BME280;69101;45.534;10.218;2023-04-23T10:51:39;99489.81;;;22.63;41.00
79625;BME280;69101;45.534;10.218;2023-04-23T10:54:05;99492.47;;;22.63;40.67
79625;BME280;69101;45.534;10.218;2023-04-23T10:56:31;99487.56;;;22.66;40.90
79625;BME280;69101;45.534;10.218;2023-04-23T10:58:57;99481.22;;;22.67;39.81
79625;BME280;69101;45.534;10.218;2023-04-23T11:01:27;99480.00;;;22.70;39.63
79625;BME280;69101;45.534;10.218;2023-04-23T11:03:54;99480.78;;;22.70;40.83
79625;BME280;69101;45.534;10.218;2023-04-23T11:12:06;99480.13;;;22.75;39.93
79625;BME280;69101;45.534;10.218;2023-04-23T11:14:44;99469.97;;;22.72;40.87
79625;BME280;69101;45.534;10.218;2023-04-23T11:17:14;99463.19;;;22.76;39.71
79625;BME280;69101;45.534;10.218;2023-04-23T11:19:41;99459.50;;;22.77;39.38
79625;BME280;69101;45.534;10.218;2023-04-23T11:22:13;99453.16;;;22.78;39.60
79625;BME280;69101;45.534;10.218;2023-04-23T11:24:40;99457.22;;;22.80;39.25
79625;BME280;69101;45.534;10.218;2023-04-23T11:27:09;99455.38;;;22.81;39.47
79625;BME280;69101;45.534;10.218;2023-04-23T11:29:36;99451.72;;;22.82;39.28
79625;BME280;69101;45.534;10.218;2023-04-23T11:32:02;99454.94;;;22.84;39.37
79625;BME280;69101;45.534;10.218;2023-04-23T11:34:30;99446.97;;;22.84;39.07
79625;BME280;69101;45.534;10.218;2023-04-23T11:36:57;99445.97;;;22.85;39.20
79625;BME280;69101;45.534;10.218;2023-04-23T11:39:23;99445.16;;;22.84;39.31
79625;BME280;69101;45.534;10.218;2023-04-23T11:41:49;99443.31;;;22.85;39.26
79625;BME280;69101;45.534;10.218;2023-04-23T11:44:16;99436.75;;;22.87;39.22
79625;BME280;69101;45.534;10.218;2023-04-23T11:46:42;99433.28;;;22.87;39.23
79625;BME280;69101;45.534;10.218;2023-04-23T11:49:08;99434.09;;;22.87;39.22
79625;BME280;69101;45.534;10.218;2023-04-23T11:51:33;99427.75;;;22.88;39.16
79625;BME280;69101;45.534;10.218;2023-04-23T11:54:03;99434.69;;;22.89;39.09
79625;BME280;69101;45.534;10.218;2023-04-23T11:56:32;99429.38;;;22.89;39.27
79625;BME280;69101;45.534;10.218;2023-04-23T11:58:59;99431.22;;;22.89;39.28
79625;BME280;69101;45.534;10.218;2023-04-23T12:01:51;99421.44;;;22.89;39.11
79625;BME280;69101;45.534;10.218;2023-04-23T12:04:26;99424.91;;;22.90;39.27
79625;BME280;69101;45.534;10.218;2023-04-23T12:06:54;99419.59;;;22.90;39.05
79625;BME280;69101;45.534;10.218;2023-04-23T12:09:22;99422.00;;;22.91;39.07
79625;BME280;69101;45.534;10.218;2023-04-23T12:11:51;99410.81;;;22.89;39.17
79625;BME280;69101;45.534;10.218;2023-04-23T12:14:17;99402.63;;;22.91;38.96
79625;BME280;69101;45.534;10.218;2023-04-23T12:16:45;99403.44;;;22.91;38.91
79625;BME280;69101;45.534;10.218;2023-04-23T12:19:16;99406.91;;;22.92;39.32
79625;BME280;69101;45.534;10.218;2023-04-23T12:21:50;99398.97;;;22.92;39.00
79625;BME280;69101;45.534;10.218;2023-04-23T12:24:19;99395.50;;;22.91;39.06
79625;BME280;69101;45.534;10.218;2023-04-23T12:26:48;99397.13;;;22.92;39.08
79625;BME280;69101;45.534;10.218;2023-04-23T12:29:17;99388.13;;;22.93;38.99
79625;BME280;69101;45.534;10.218;2023-04-23T12:31:42;99386.28;;;22.94;38.85
79625;BME280;69101;45.534;10.218;2023-04-23T12:34:09;99379.16;;;22.94;38.98
79625;BME280;69101;45.534;10.218;2023-04-23T12:36:36;99389.75;;;22.94;39.05
79625;BME280;69101;45.534;10.218;2023-04-23T12:39:30;99388.72;;;22.95;38.96
79625;BME280;69101;45.534;10.218;2023-04-23T12:41:56;99385.25;;;22.95;39.01
79625;BME280;69101;45.534;10.218;2023-04-23T12:44:24;99394.03;;;22.95;38.95
79625;BME280;69101;45.534;10.218;2023-04-23T12:46:59;99380.78;;;22.95;38.87
79625;BME280;69101;45.534;10.218;2023-04-23T12:49:25;99379.97;;;22.95;38.87
79625;BME280;69101;45.534;10.218;2023-04-23T12:51:52;99374.41;;;22.96;38.91
79625;BME280;69101;45.534;10.218;2023-04-23T12:54:21;99377.88;;;22.97;38.85